Pilot, Virginia
Current Conditions -  °F | °C
As of 3:15 PM on Wednesday 28 Jan 2015 (Local Time) from KBCB Reporting Station
Clear Clear  
Wind Chill: 35°   Ceiling: Unl
Heat Index: 35°   Visibility: 10mi
Dew Point: 12°   Wind: 3mph
Humidity: 39%   Direction: 230°SW
Pressure: 30.21"   Gusts: NA
Location:  37.05°N, 80.36°W
Report Text: KBCB 282015Z AUTO 23003KT 10SM CLR 02/M11 A3021 RMK AO2 T00161111
Loading
Personal Weather Stations






























Interactive Weather Map New forecast layout! Learn more

10-Day Weather Forecast

Advertisements
Track Severe Weather on mobile